Time;durP1;ratioP1;P1;durP2;ratioP2;P2;SDS_P1;SDS_P2;PMS_P1;PMS_P2;Temp;Humidity;BMP_temperature;BMP_pressure;BME280_temperature;BME280_humidity;BME280_pressure;Samples;Min_cycle;Max_cycle;Signal;HPM_P1;HPM_P2
2022/06/25 00:01:07;;;;;;;;;;;20.30;76.90;;;;;;5038383;28;19929;-76
2022/06/25 00:03:33;;;;;;;;;;;20.30;76.90;;;;;;5041163;28;19936;-75
2022/06/25 00:05:59;;;;;;;;;;;20.20;76.90;;;;;;5040538;28;19940;-70
2022/06/25 00:08:25;;;;;;;;;;;20.20;76.90;;;;;;5038764;28;19925;-75
2022/06/25 00:10:53;;;;;;;;;;;20.20;77.00;;;;;;5039137;28;19929;-76
2022/06/25 00:13:19;;;;;;;;;;;20.20;77.00;;;;;;5039257;28;19933;-77
2022/06/25 00:15:46;;;;;;;;;;;20.10;76.90;;;;;;5041758;28;19929;-74
2022/06/25 00:18:13;;;;;;;;;;;20.10;77.00;;;;;;5030931;28;19936;-74
2022/06/25 00:20:39;;;;;;;;;;;20.10;77.00;;;;;;5038861;28;19961;-74
2022/06/25 00:23:06;;;;;;;;;;;20.10;77.00;;;;;;5037864;28;19937;-76
2022/06/25 00:25:33;;;;;;;;;;;20.00;77.00;;;;;;5037796;28;19929;-74
2022/06/25 00:28:01;;;;;;;;;;;20.00;77.00;;;;;;5039730;28;19933;-74
2022/06/25 00:30:28;;;;;;;;;;;20.00;77.00;;;;;;5038924;28;20516;-74
2022/06/25 00:32:54;;;;;;;;;;;19.90;77.00;;;;;;5038286;28;19964;-74
2022/06/25 00:35:21;;;;;;;;;;;19.90;77.10;;;;;;5038716;28;19929;-76
2022/06/25 00:37:48;;;;;;;;;;;19.90;77.20;;;;;;5040784;28;19933;-74
2022/06/25 00:40:15;;;;;;;;;;;19.90;77.20;;;;;;5039423;28;19932;-75
2022/06/25 00:42:42;;;;;;;;;;;19.90;77.20;;;;;;5039457;28;19935;-75
2022/06/25 00:45:10;;;;;;;;;;;19.80;77.20;;;;;;5034505;28;19952;-76
2022/06/25 00:47:37;;;;;;;;;;;19.80;77.20;;;;;;5033904;28;19933;-74
2022/06/25 00:50:04;;;;;;;;;;;19.80;77.30;;;;;;5039578;28;20396;-73
2022/06/25 00:52:32;;;;;;;;;;;19.80;77.30;;;;;;5039013;28;19929;-74
2022/06/25 00:55:02;;;;;;;;;;;19.70;77.40;;;;;;5038509;28;20385;-74
2022/06/25 00:57:29;;;;;;;;;;;19.70;77.40;;;;;;5039386;28;19928;-75
2022/06/25 00:59:58;;;;;;;;;;;19.70;77.40;;;;;;5038111;28;19933;-71
2022/06/25 01:02:26;;;;;;;;;;;19.70;77.60;;;;;;5037996;28;19931;-74
2022/06/25 01:04:52;;;;;;;;;;;19.60;77.50;;;;;;5040239;28;19932;-76
2022/06/25 01:07:19;;;;;;;;;;;19.60;77.50;;;;;;5038343;28;19935;-74
2022/06/25 01:09:47;;;;;;;;;;;19.60;77.50;;;;;;5037821;28;19935;-75
2022/06/25 01:12:14;;;;;;;;;;;19.60;77.60;;;;;;5036742;28;20383;-74
2022/06/25 01:14:41;;;;;;;;;;;19.60;77.60;;;;;;5038139;28;20016;-76
2022/06/25 01:17:08;;;;;;;;;;;19.50;77.20;;;;;;5036229;28;19936;-77
2022/06/25 01:19:37;;;;;;;;;;;19.50;77.70;;;;;;5038604;28;19929;-76
2022/06/25 01:22:05;;;;;;;;;;;19.50;77.20;;;;;;5037872;28;19932;-74
2022/06/25 01:24:32;;;;;;;;;;;19.40;77.10;;;;;;5032080;28;20882;-74
2022/06/25 01:26:59;;;;;;;;;;;19.40;77.70;;;;;;5039315;28;20411;-74
2022/06/25 01:29:26;;;;;;;;;;;19.40;77.80;;;;;;5040025;28;20884;-72
2022/06/25 01:31:52;;;;;;;;;;;19.40;77.80;;;;;;5037516;28;20794;-73
2022/06/25 01:34:19;;;;;;;;;;;19.40;77.80;;;;;;5035102;28;19929;-71
2022/06/25 01:36:46;;;;;;;;;;;19.40;77.80;;;;;;5038698;28;21162;-76
2022/06/25 01:39:14;;;;;;;;;;;19.30;78.00;;;;;;5039281;28;20466;-73
2022/06/25 01:41:40;;;;;;;;;;;19.30;77.90;;;;;;5036869;28;19951;-74
2022/06/25 01:44:07;;;;;;;;;;;19.30;77.90;;;;;;5038132;28;19932;-75
2022/06/25 01:46:33;;;;;;;;;;;19.20;77.90;;;;;;5035703;28;21089;-74
2022/06/25 01:49:00;;;;;;;;;;;19.30;78.20;;;;;;5037866;28;20400;-76
2022/06/25 01:51:26;;;;;;;;;;;19.20;78.10;;;;;;5038513;28;19951;-74
2022/06/25 01:53:53;;;;;;;;;;;19.20;78.20;;;;;;5037816;28;20336;-75
2022/06/25 01:56:21;;;;;;;;;;;19.20;78.20;;;;;;5038782;28;20419;-75
2022/06/25 01:58:47;;;;;;;;;;;19.20;78.20;;;;;;5037798;28;20370;-75
2022/06/25 02:01:14;;;;;;;;;;;19.20;78.30;;;;;;5038153;28;20490;-74
2022/06/25 02:03:40;;;;;;;;;;;19.10;78.20;;;;;;5035950;28;19936;-76
2022/06/25 02:06:07;;;;;;;;;;;19.10;78.30;;;;;;5038870;28;20060;-74
2022/06/25 02:08:35;;;;;;;;;;;19.10;78.40;;;;;;5036737;28;19935;-75
2022/06/25 02:11:03;;;;;;;;;;;19.10;78.50;;;;;;5038224;28;20023;-73
2022/06/25 02:13:30;;;;;;;;;;;19.10;78.60;;;;;;5041690;28;20002;-75
2022/06/25 02:15:57;;;;;;;;;;;19.00;78.70;;;;;;5040219;28;19932;-74
2022/06/25 02:18:26;;;;;;;;;;;19.00;78.80;;;;;;5040469;28;20203;-74
2022/06/25 02:20:52;;;;;;;;;;;19.00;78.90;;;;;;5040780;28;19939;-77
2022/06/25 02:23:19;;;;;;;;;;;19.00;78.90;;;;;;5040110;28;19928;-75
2022/06/25 02:25:46;;;;;;;;;;;19.00;79.00;;;;;;5037949;28;20754;-75
2022/06/25 02:28:13;;;;;;;;;;;19.00;78.90;;;;;;5039145;28;19935;-75
2022/06/25 02:30:41;;;;;;;;;;;19.00;79.70;;;;;;5039511;28;19952;-77
2022/06/25 02:33:08;;;;;;;;;;;18.90;78.90;;;;;;5037748;28;19933;-74
2022/06/25 02:35:35;;;;;;;;;;;18.90;78.90;;;;;;5038484;28;20462;-75
2022/06/25 02:38:01;;;;;;;;;;;18.90;79.00;;;;;;5037392;28;19932;-73
2022/06/25 02:40:28;;;;;;;;;;;18.90;79.00;;;;;;5037243;28;19940;-74
2022/06/25 02:42:55;;;;;;;;;;;18.80;79.10;;;;;;5038125;28;19928;-75
2022/06/25 02:45:21;;;;;;;;;;;18.80;79.10;;;;;;5035633;28;20409;-74
2022/06/25 02:47:49;;;;;;;;;;;18.80;79.20;;;;;;5039064;28;20046;-75
2022/06/25 02:50:16;;;;;;;;;;;18.80;79.20;;;;;;5038939;28;19963;-74
2022/06/25 02:52:42;;;;;;;;;;;18.80;79.30;;;;;;5040733;28;19936;-75
2022/06/25 02:55:09;;;;;;;;;;;18.80;79.40;;;;;;5039550;28;19936;-74
2022/06/25 03:00:19;;;;;;;;;;;18.80;79.50;;;;;;5038243;28;19932;-75
2022/06/25 03:02:46;;;;;;;;;;;18.80;79.40;;;;;;5041596;28;19929;-77
2022/06/25 03:05:14;;;;;;;;;;;18.70;79.40;;;;;;5040804;28;19933;-74
2022/06/25 03:07:41;;;;;;;;;;;18.70;79.50;;;;;;5041528;28;19929;-77
2022/06/25 03:10:07;;;;;;;;;;;18.70;79.50;;;;;;5040090;28;20561;-76
2022/06/25 03:12:35;;;;;;;;;;;18.60;79.50;;;;;;5041978;28;19928;-76
2022/06/25 03:15:01;;;;;;;;;;;18.60;79.50;;;;;;5041172;28;20458;-74
2022/06/25 03:17:28;;;;;;;;;;;18.60;79.50;;;;;;5036311;28;20408;-74
2022/06/25 03:19:55;;;;;;;;;;;18.60;79.40;;;;;;5041686;28;19929;-75
2022/06/25 03:22:23;;;;;;;;;;;18.60;79.50;;;;;;5043002;28;19932;-75
2022/06/25 03:24:49;;;;;;;;;;;18.60;79.50;;;;;;5042687;28;19925;-76
2022/06/25 03:27:16;;;;;;;;;;;18.50;79.40;;;;;;5039287;28;19940;-77
2022/06/25 03:29:42;;;;;;;;;;;18.50;79.40;;;;;;5041823;28;19929;-75
2022/06/25 03:32:09;;;;;;;;;;;18.50;79.40;;;;;;5039900;28;19932;-75
2022/06/25 03:34:35;;;;;;;;;;;18.50;79.50;;;;;;5036781;28;19982;-75
2022/06/25 03:37:02;;;;;;;;;;;18.50;79.60;;;;;;5041608;28;20004;-75
2022/06/25 03:39:30;;;;;;;;;;;18.50;79.50;;;;;;5041127;28;19933;-75
2022/06/25 03:41:57;;;;;;;;;;;18.50;79.60;;;;;;5039970;28;19929;-74
2022/06/25 03:44:23;;;;;;;;;;;18.40;79.50;;;;;;5040942;28;19935;-74
2022/06/25 03:46:50;;;;;;;;;;;18.40;79.50;;;;;;5042432;28;19928;-74
2022/06/25 03:49:16;;;;;;;;;;;18.40;79.50;;;;;;5041563;28;19940;-76
2022/06/25 03:51:43;;;;;;;;;;;18.40;79.00;;;;;;5042800;28;19936;-75
2022/06/25 03:54:09;;;;;;;;;;;18.30;79.50;;;;;;5039065;28;19935;-74
2022/06/25 03:56:37;;;;;;;;;;;18.30;79.50;;;;;;5041956;28;19932;-74
2022/06/25 03:59:04;;;;;;;;;;;18.40;79.60;;;;;;5042313;28;19929;-72
2022/06/25 04:01:30;;;;;;;;;;;18.30;79.60;;;;;;5042243;28;19933;-75
2022/06/25 04:03:57;;;;;;;;;;;18.30;79.50;;;;;;5039163;28;19928;-75
2022/06/25 04:06:23;;;;;;;;;;;18.20;79.60;;;;;;5042273;28;20661;-75
2022/06/25 04:08:50;;;;;;;;;;;18.20;79.60;;;;;;5040979;28;19929;-70
2022/06/25 04:11:16;;;;;;;;;;;18.20;79.70;;;;;;5040617;28;19935;-69
2022/06/25 04:13:44;;;;;;;;;;;18.20;79.60;;;;;;5040009;28;19936;-69
2022/06/25 04:16:11;;;;;;;;;;;18.20;79.60;;;;;;5041051;28;19929;-69
2022/06/25 04:18:37;;;;;;;;;;;18.20;79.70;;;;;;5042436;28;19936;-70
2022/06/25 04:21:04;;;;;;;;;;;18.20;79.70;;;;;;5041682;28;19933;-71
2022/06/25 04:23:30;;;;;;;;;;;18.10;79.80;;;;;;5040940;28;19932;-67
2022/06/25 04:25:57;;;;;;;;;;;18.10;79.90;;;;;;5041521;28;19940;-67
2022/06/25 04:31:09;;;;;;;;;;;18.10;79.80;;;;;;5040619;28;20082;-71
2022/06/25 04:33:36;;;;;;;;;;;18.90;79.90;;;;;;5041676;28;19932;-68
2022/06/25 04:36:02;;;;;;;;;;;18.10;82.60;;;;;;5044385;28;19932;-70
2022/06/25 04:38:29;;;;;;;;;;;18.00;79.10;;;;;;5041664;28;20301;-67
2022/06/25 04:40:55;;;;;;;;;;;18.10;79.80;;;;;;5038675;28;20388;-71
2022/06/25 04:43:23;;;;;;;;;;;18.10;80.00;;;;;;5041159;28;19929;-70
2022/06/25 04:45:50;;;;;;;;;;;18.10;80.00;;;;;;5041361;28;19932;-70
2022/06/25 04:48:18;;;;;;;;;;;18.00;80.10;;;;;;5041365;28;20317;-72
2022/06/25 04:50:44;;;;;;;;;;;18.00;80.10;;;;;;5043694;28;19924;-69
2022/06/25 04:53:11;;;;;;;;;;;18.00;80.20;;;;;;5040489;28;19939;-69
2022/06/25 04:55:37;;;;;;;;;;;18.00;80.10;;;;;;5038858;28;20389;-68
2022/06/25 04:58:04;;;;;;;;;;;18.00;80.30;;;;;;5040792;28;20475;-71
2022/06/25 05:00:31;;;;;;;;;;;18.00;80.40;;;;;;5043213;28;19936;-66
2022/06/25 05:02:57;;;;;;;;;;;18.00;81.20;;;;;;5040513;28;19928;-68
2022/06/25 05:05:25;;;;;;;;;;;18.00;80.40;;;;;;5041399;28;19928;-66
2022/06/25 05:07:52;;;;;;;;;;;17.90;80.40;;;;;;5040834;28;19929;-71
2022/06/25 05:10:18;;;;;;;;;;;17.90;80.50;;;;;;5040697;28;19936;-68
2022/06/25 05:15:29;;;;;;;;;;;17.90;80.60;;;;;;5038202;28;20657;-74
2022/06/25 05:17:55;;;;;;;;;;;17.90;80.60;;;;;;5042195;28;20244;-74
2022/06/25 05:20:22;;;;;;;;;;;17.90;80.60;;;;;;5041210;28;19928;-74
2022/06/25 05:22:50;;;;;;;;;;;17.90;80.70;;;;;;5039061;28;20026;-72
2022/06/25 05:25:16;;;;;;;;;;;18.00;80.80;;;;;;5041072;28;19933;-75
2022/06/25 05:27:43;;;;;;;;;;;18.00;81.00;;;;;;5036446;28;19928;-74
2022/06/25 05:30:10;;;;;;;;;;;17.90;80.20;;;;;;5036809;28;19929;-73
2022/06/25 05:32:37;;;;;;;;;;;18.00;80.40;;;;;;5035379;28;19936;-75
2022/06/25 05:35:04;;;;;;;;;;;18.00;81.00;;;;;;5038453;28;20937;-72
2022/06/25 05:37:30;;;;;;;;;;;18.00;81.00;;;;;;5034896;28;19980;-73
2022/06/25 05:39:58;;;;;;;;;;;18.00;80.50;;;;;;5036050;28;19929;-72
2022/06/25 05:42:25;;;;;;;;;;;18.00;80.40;;;;;;5040155;28;20472;-72
2022/06/25 05:44:51;;;;;;;;;;;18.00;81.00;;;;;;5037962;28;20567;-76
2022/06/25 05:47:18;;;;;;;;;;;18.00;81.00;;;;;;5034427;28;19987;-74
2022/06/25 05:49:44;;;;;;;;;;;18.00;80.90;;;;;;5038303;28;19929;-76
2022/06/25 05:52:11;;;;;;;;;;;18.00;80.30;;;;;;5037306;28;19928;-72
2022/06/25 05:54:38;;;;;;;;;;;18.00;80.20;;;;;;5038052;28;19929;-73
2022/06/25 05:57:07;;;;;;;;;;;18.10;80.90;;;;;;5039180;28;19932;-75
2022/06/25 05:59:33;;;;;;;;;;;18.00;80.80;;;;;;5038862;28;20004;-73
2022/06/25 06:02:00;;;;;;;;;;;18.10;80.20;;;;;;5037867;28;19956;-73
2022/06/25 06:04:27;;;;;;;;;;;18.10;80.80;;;;;;5038738;28;19933;-73
2022/06/25 06:06:53;;;;;;;;;;;18.10;80.80;;;;;;5038350;28;19944;-76
2022/06/25 06:09:20;;;;;;;;;;;18.10;80.80;;;;;;5037278;28;19936;-74
2022/06/25 06:11:46;;;;;;;;;;;18.10;80.20;;;;;;5032469;28;19925;-77
2022/06/25 06:14:14;;;;;;;;;;;18.20;80.90;;;;;;5039555;28;19928;-77
2022/06/25 06:16:41;;;;;;;;;;;18.20;80.20;;;;;;5040872;28;19933;-77
2022/06/25 06:19:07;;;;;;;;;;;18.20;80.80;;;;;;5040909;28;19933;-77
2022/06/25 06:21:34;;;;;;;;;;;18.20;80.90;;;;;;5042385;28;19932;-78
2022/06/25 06:24:01;;;;;;;;;;;18.20;81.00;;;;;;5040237;28;19939;-75
2022/06/25 06:26:27;;;;;;;;;;;18.20;81.10;;;;;;5039862;28;19925;-75
2022/06/25 06:28:54;;;;;;;;;;;18.20;81.10;;;;;;5042899;28;19933;-77
2022/06/25 06:31:22;;;;;;;;;;;18.20;81.20;;;;;;5041236;28;19991;-78
2022/06/25 06:33:48;;;;;;;;;;;18.30;81.30;;;;;;5042841;28;19928;-75
2022/06/25 06:36:15;;;;;;;;;;;18.30;81.40;;;;;;5041344;28;19936;-73
2022/06/25 06:38:41;;;;;;;;;;;18.30;81.30;;;;;;5037900;28;19933;-75
2022/06/25 06:41:08;;;;;;;;;;;18.30;81.30;;;;;;5041725;28;19936;-74
2022/06/25 06:43:35;;;;;;;;;;;18.30;81.40;;;;;;5040779;28;19939;-74
2022/06/25 06:46:01;;;;;;;;;;;18.40;81.30;;;;;;5040554;28;20550;-74
2022/06/25 06:48:30;;;;;;;;;;;18.40;81.20;;;;;;5042650;28;19935;-75
2022/06/25 06:50:56;;;;;;;;;;;18.40;81.20;;;;;;5044880;28;19939;-74
2022/06/25 06:53:23;;;;;;;;;;;18.40;80.70;;;;;;5041131;28;19936;-75
2022/06/25 06:55:50;;;;;;;;;;;18.40;81.30;;;;;;5042250;28;20395;-74
2022/06/25 06:58:17;;;;;;;;;;;18.50;81.30;;;;;;5041903;28;20031;-73
2022/06/25 07:00:44;;;;;;;;;;;18.50;81.20;;;;;;5040844;28;19928;-74
2022/06/25 07:03:10;;;;;;;;;;;18.50;81.10;;;;;;5040950;28;19940;-75
2022/06/25 07:05:38;;;;;;;;;;;18.50;81.00;;;;;;5042519;28;19928;-76
2022/06/25 07:08:05;;;;;;;;;;;18.60;81.50;;;;;;5042107;28;19936;-67
2022/06/25 07:10:32;;;;;;;;;;;18.60;81.50;;;;;;5042117;28;20298;-67
2022/06/25 07:12:58;;;;;;;;;;;18.60;81.30;;;;;;5042531;28;19934;-66
2022/06/25 07:15:25;;;;;;;;;;;18.60;81.20;;;;;;5042806;28;19932;-68
2022/06/25 07:17:51;;;;;;;;;;;18.60;81.10;;;;;;5040044;28;19932;-66
2022/06/25 07:20:18;;;;;;;;;;;18.70;81.00;;;;;;5042030;28;19929;-72
2022/06/25 07:22:46;;;;;;;;;;;18.70;80.90;;;;;;5042454;28;19929;-68
2022/06/25 07:25:13;;;;;;;;;;;18.70;80.80;;;;;;5044485;28;19935;-66
2022/06/25 07:27:39;;;;;;;;;;;18.70;80.60;;;;;;5045136;28;20359;-69
2022/06/25 07:30:06;;;;;;;;;;;18.80;80.60;;;;;;5045388;28;19933;-69
2022/06/25 07:32:33;;;;;;;;;;;18.80;80.70;;;;;;5041062;28;19933;-67
2022/06/25 07:34:59;;;;;;;;;;;18.90;80.90;;;;;;5047019;28;19933;-68
2022/06/25 07:37:26;;;;;;;;;;;18.90;80.90;;;;;;5043997;28;19936;-69
2022/06/25 07:39:54;;;;;;;;;;;18.90;81.00;;;;;;5041986;28;19928;-69
2022/06/25 07:42:20;;;;;;;;;;;19.00;80.90;;;;;;5044017;28;20292;-70
2022/06/25 07:44:47;;;;;;;;;;;19.00;80.80;;;;;;5044329;28;19991;-68
2022/06/25 07:47:14;;;;;;;;;;;19.10;80.80;;;;;;5044054;28;19935;-71
2022/06/25 07:52:21;;;;;;;;;;;19.10;80.50;;;;;;5038070;28;20018;-67
2022/06/25 07:54:47;;;;;;;;;;;19.10;80.40;;;;;;5039976;28;20316;-71
2022/06/25 07:57:16;;;;;;;;;;;19.10;80.30;;;;;;5044272;28;19936;-68
2022/06/25 07:59:42;;;;;;;;;;;19.10;80.20;;;;;;5041528;28;20458;-68
2022/06/25 08:02:09;;;;;;;;;;;19.20;80.10;;;;;;5041957;28;19932;-68
2022/06/25 08:04:35;;;;;;;;;;;19.20;80.00;;;;;;5039890;28;19932;-72
2022/06/25 08:07:03;;;;;;;;;;;19.20;80.00;;;;;;5043909;28;19932;-69
2022/06/25 08:09:29;;;;;;;;;;;19.20;80.00;;;;;;5042069;28;20019;-66
2022/06/25 08:11:56;;;;;;;;;;;19.30;80.10;;;;;;5043744;28;19929;-70
2022/06/25 08:14:24;;;;;;;;;;;19.30;80.10;;;;;;5043011;28;19929;-71
2022/06/25 08:16:50;;;;;;;;;;;19.30;80.20;;;;;;5043733;28;19929;-72
2022/06/25 08:19:17;;;;;;;;;;;19.40;80.30;;;;;;5037547;28;20499;-67
2022/06/25 08:21:44;;;;;;;;;;;19.40;80.30;;;;;;5043192;28;19932;-67
2022/06/25 08:24:10;;;;;;;;;;;19.50;80.20;;;;;;5043370;28;20324;-68
2022/06/25 08:26:37;;;;;;;;;;;19.50;80.10;;;;;;5043917;28;19937;-70
2022/06/25 08:29:03;;;;;;;;;;;19.60;80.00;;;;;;5046065;28;19929;-69
2022/06/25 08:31:31;;;;;;;;;;;19.60;79.90;;;;;;5040306;28;19925;-68
2022/06/25 08:33:58;;;;;;;;;;;19.60;79.90;;;;;;5034133;28;19937;-69
2022/06/25 08:36:24;;;;;;;;;;;19.70;79.80;;;;;;5043461;28;19935;-67
2022/06/25 08:38:51;;;;;;;;;;;19.70;79.60;;;;;;5040763;28;20352;-70
2022/06/25 08:41:18;;;;;;;;;;;19.80;79.50;;;;;;5042291;28;19991;-68
2022/06/25 08:43:45;;;;;;;;;;;19.90;79.50;;;;;;5040397;28;19928;-68
2022/06/25 08:46:11;;;;;;;;;;;19.90;79.40;;;;;;5042421;28;19948;-71
2022/06/25 08:48:42;;;;;;;;;;;19.90;79.30;;;;;;5041211;28;19936;-69
2022/06/25 08:51:09;;;;;;;;;;;20.00;79.20;;;;;;5042284;28;19943;-69
2022/06/25 08:53:36;;;;;;;;;;;20.00;79.00;;;;;;5040668;28;19929;-70
2022/06/25 08:56:03;;;;;;;;;;;20.10;78.90;;;;;;5040495;28;19936;-68
2022/06/25 08:58:30;;;;;;;;;;;20.20;78.90;;;;;;5043122;28;20024;-69
2022/06/25 09:00:56;;;;;;;;;;;20.20;78.40;;;;;;5033819;28;19933;-68
2022/06/25 09:03:23;;;;;;;;;;;20.30;78.00;;;;;;5042217;28;19929;-69
2022/06/25 09:05:51;;;;;;;;;;;20.30;78.10;;;;;;5042123;28;19936;-68
2022/06/25 09:08:18;;;;;;;;;;;20.40;78.00;;;;;;5043035;28;19935;-69
2022/06/25 09:10:45;;;;;;;;;;;20.40;77.80;;;;;;5042059;28;19928;-67
2022/06/25 09:13:12;;;;;;;;;;;20.50;77.70;;;;;;5042318;28;19933;-69
2022/06/25 09:15:40;;;;;;;;;;;20.50;77.30;;;;;;5041400;28;19933;-67
2022/06/25 09:18:07;;;;;;;;;;;20.60;76.90;;;;;;5041348;28;19936;-67
2022/06/25 09:20:34;;;;;;;;;;;20.60;76.70;;;;;;5042380;28;19940;-69
2022/06/25 09:23:05;;;;;;;;;;;20.70;76.80;;;;;;5042948;28;19935;-68
2022/06/25 09:25:32;;;;;;;;;;;20.70;76.60;;;;;;5041200;28;19933;-67
2022/06/25 09:27:59;;;;;;;;;;;20.80;76.40;;;;;;5043482;28;20690;-70
2022/06/25 09:30:26;;;;;;;;;;;20.90;76.40;;;;;;5043145;28;19932;-69
2022/06/25 09:32:54;;;;;;;;;;;20.90;76.10;;;;;;5037316;28;20145;-69
2022/06/25 09:35:39;;;;;;;;;;;21.00;75.90;;;;;;5044201;28;20055;-71
2022/06/25 09:38:08;;;;;;;;;;;21.00;75.80;;;;;;5026816;28;19936;-70
2022/06/25 09:40:35;;;;;;;;;;;21.10;76.30;;;;;;5039251;28;19925;-70
2022/06/25 09:43:10;;;;;;;;;;;21.10;75.20;;;;;;5042696;28;19937;-67
2022/06/25 09:45:37;;;;;;;;;;;21.20;74.80;;;;;;5037419;28;19928;-69
2022/06/25 09:48:04;;;;;;;;;;;21.30;74.50;;;;;;5036851;28;19929;-68
2022/06/25 09:50:31;;;;;;;;;;;21.40;73.90;;;;;;5040408;28;19935;-68
2022/06/25 09:52:59;;;;;;;;;;;21.40;73.80;;;;;;5040132;28;19936;-67
2022/06/25 09:55:31;;;;;;;;;;;21.50;73.90;;;;;;5038280;28;20467;-71
2022/06/25 09:57:59;;;;;;;;;;;21.60;74.30;;;;;;5041595;28;19936;-67
2022/06/25 10:00:25;;;;;;;;;;;21.60;73.60;;;;;;5039904;28;19943;-68
2022/06/25 10:02:53;;;;;;;;;;;21.70;72.80;;;;;;5041480;28;19943;-69
2022/06/25 10:05:31;;;;;;;;;;;21.80;73.00;;;;;;5041183;28;19933;-69
2022/06/25 10:08:01;;;;;;;;;;;21.90;72.50;;;;;;5040861;28;20019;-67
2022/06/25 10:10:31;;;;;;;;;;;21.90;72.30;;;;;;5040561;28;19928;-69
2022/06/25 10:12:57;;;;;;;;;;;22.10;72.00;;;;;;5042078;28;19964;-67
2022/06/25 10:15:24;;;;;;;;;;;22.10;71.80;;;;;;5040506;28;19933;-70
2022/06/25 10:17:52;;;;;;;;;;;22.20;71.80;;;;;;5041201;28;19997;-70
2022/06/25 10:20:19;;;;;;;;;;;22.30;71.50;;;;;;5040901;28;20347;-68
2022/06/25 10:22:47;;;;;;;;;;;22.30;71.20;;;;;;5041998;28;19929;-69
2022/06/25 10:25:14;;;;;;;;;;;22.40;71.10;;;;;;5041010;28;19929;-68
2022/06/25 10:27:44;;;;;;;;;;;22.40;70.80;;;;;;5042093;28;19936;-72
2022/06/25 10:30:11;;;;;;;;;;;22.50;70.20;;;;;;5041517;28;19932;-69
2022/06/25 10:32:44;;;;;;;;;;;22.60;70.00;;;;;;5040524;28;19929;-69
2022/06/25 10:35:26;;;;;;;;;;;22.60;69.50;;;;;;5038772;28;19939;-71
2022/06/25 10:38:00;;;;;;;;;;;22.70;69.00;;;;;;5039388;28;19962;-71
2022/06/25 10:40:27;;;;;;;;;;;22.70;68.60;;;;;;5039525;28;20509;-69
2022/06/25 10:43:00;;;;;;;;;;;22.90;69.00;;;;;;5041286;28;19932;-69
2022/06/25 10:45:51;;;;;;;;;;;22.90;69.00;;;;;;5040847;28;20521;-67
2022/06/25 10:48:19;;;;;;;;;;;22.90;68.90;;;;;;5040092;28;19929;-67
2022/06/25 10:50:53;;;;;;;;;;;23.00;68.50;;;;;;5040651;28;20711;-67
2022/06/25 10:53:23;;;;;;;;;;;23.10;69.10;;;;;;5039733;28;19929;-70
2022/06/25 10:56:02;;;;;;;;;;;23.10;68.20;;;;;;5039721;28;20028;-68
2022/06/25 10:58:42;;;;;;;;;;;23.20;68.00;;;;;;5035053;28;19932;-68
2022/06/25 11:01:19;;;;;;;;;;;23.30;67.80;;;;;;5039296;28;20015;-68
2022/06/25 11:03:45;;;;;;;;;;;23.30;67.70;;;;;;5039275;28;20626;-69
2022/06/25 11:06:19;;;;;;;;;;;23.40;67.80;;;;;;5040690;28;19929;-69
2022/06/25 11:08:46;;;;;;;;;;;23.40;67.70;;;;;;5044391;28;19929;-68
2022/06/25 11:11:13;;;;;;;;;;;23.50;66.80;;;;;;5042893;28;19964;-67
2022/06/25 11:13:42;;;;;;;;;;;23.60;66.20;;;;;;5044367;28;20412;-70
2022/06/25 11:16:15;;;;;;;;;;;23.70;66.10;;;;;;5040132;28;19936;-70
2022/06/25 11:18:48;;;;;;;;;;;23.70;66.20;;;;;;5040584;28;19933;-67
2022/06/25 11:21:25;;;;;;;;;;;23.80;66.00;;;;;;5044884;28;20658;-70
2022/06/25 11:23:52;;;;;;;;;;;23.80;65.80;;;;;;5043376;28;20049;-70
2022/06/25 11:29:04;;;;;;;;;;;24.00;65.60;;;;;;5046646;28;20016;-68
2022/06/25 11:31:33;;;;;;;;;;;24.10;65.40;;;;;;5043534;28;19929;-67
2022/06/25 11:34:01;;;;;;;;;;;24.20;65.00;;;;;;5039824;28;20021;-72
2022/06/25 11:36:27;;;;;;;;;;;24.20;64.50;;;;;;5044539;28;19936;-67
2022/06/25 11:38:54;;;;;;;;;;;24.30;64.60;;;;;;5040218;28;20779;-70
2022/06/25 11:41:21;;;;;;;;;;;24.40;64.80;;;;;;5040893;28;20143;-69
2022/06/25 11:43:48;;;;;;;;;;;24.40;63.50;;;;;;5043496;28;19929;-69
2022/06/25 11:46:18;;;;;;;;;;;24.50;63.30;;;;;;5043583;28;20499;-68
2022/06/25 11:48:46;;;;;;;;;;;24.50;63.30;;;;;;5041902;28;20039;-71
2022/06/25 11:51:14;;;;;;;;;;;24.60;63.40;;;;;;5044282;28;19951;-70
2022/06/25 11:53:42;;;;;;;;;;;24.70;63.00;;;;;;5043991;28;19932;-68
2022/06/25 11:56:08;;;;;;;;;;;24.80;62.30;;;;;;5043314;28;19928;-69
2022/06/25 11:58:36;;;;;;;;;;;24.90;62.70;;;;;;5044536;28;19971;-69
2022/06/25 12:01:04;;;;;;;;;;;24.90;62.50;;;;;;5041348;28;19929;-70
2022/06/25 12:03:33;;;;;;;;;;;24.90;62.50;;;;;;5044064;28;19998;-71
2022/06/25 12:06:00;;;;;;;;;;;25.00;61.90;;;;;;5043095;28;19928;-73
2022/06/25 12:08:27;;;;;;;;;;;25.10;61.40;;;;;;5043264;28;19932;-70
2022/06/25 12:10:54;;;;;;;;;;;25.10;60.90;;;;;;5044415;28;19939;-72
2022/06/25 12:13:21;;;;;;;;;;;25.20;61.10;;;;;;5044694;28;19929;-71
2022/06/25 12:15:48;;;;;;;;;;;25.20;61.20;;;;;;5043852;28;19928;-70
2022/06/25 12:18:14;;;;;;;;;;;25.30;61.60;;;;;;5037144;28;19932;-69
2022/06/25 12:20:54;;;;;;;;;;;25.30;61.60;;;;;;5043432;28;19925;-73
2022/06/25 12:23:21;;;;;;;;;;;25.30;61.70;;;;;;5035167;28;20006;-69
2022/06/25 12:25:48;;;;;;;;;;;25.40;61.40;;;;;;5043368;28;19935;-68
2022/06/25 12:28:15;;;;;;;;;;;25.40;62.10;;;;;;5040908;28;19932;-68
2022/06/25 12:30:42;;;;;;;;;;;25.40;61.10;;;;;;5045009;28;19936;-69
2022/06/25 12:33:10;;;;;;;;;;;25.40;60.80;;;;;;5040502;28;19948;-71
2022/06/25 12:35:40;;;;;;;;;;;25.50;60.40;;;;;;5046144;28;20583;-67
2022/06/25 12:38:08;;;;;;;;;;;25.50;60.00;;;;;;5042946;28;20393;-68
2022/06/25 12:40:38;;;;;;;;;;;25.60;60.00;;;;;;5038636;28;19929;-70
2022/06/25 12:43:06;;;;;;;;;;;25.60;60.00;;;;;;5042647;28;20009;-69
2022/06/25 12:45:32;;;;;;;;;;;25.60;60.10;;;;;;5032712;28;19968;-75
2022/06/25 12:47:59;;;;;;;;;;;25.70;59.80;;;;;;5039015;28;19975;-74
2022/06/25 12:50:27;;;;;;;;;;;25.80;60.20;;;;;;5041449;28;19947;-74
2022/06/25 12:52:54;;;;;;;;;;;25.80;59.90;;;;;;5042368;28;19939;-73
2022/06/25 12:55:23;;;;;;;;;;;25.90;60.70;;;;;;5037324;28;19932;-75
2022/06/25 12:57:49;;;;;;;;;;;25.90;60.00;;;;;;5042028;28;19971;-74
2022/06/25 13:00:20;;;;;;;;;;;25.90;60.30;;;;;;5041353;28;20681;-76
2022/06/25 13:02:47;;;;;;;;;;;26.00;59.30;;;;;;5041999;28;19929;-74
2022/06/25 13:05:14;;;;;;;;;;;26.00;59.20;;;;;;5041134;28;19974;-75
2022/06/25 13:07:41;;;;;;;;;;;26.00;58.90;;;;;;5038571;28;20016;-75
2022/06/25 13:10:08;;;;;;;;;;;26.10;59.00;;;;;;5038088;28;19940;-74
2022/06/25 13:12:35;;;;;;;;;;;26.10;58.70;;;;;;5037754;28;19936;-74
2022/06/25 13:15:02;;;;;;;;;;;26.20;58.30;;;;;;5040447;28;20431;-75
2022/06/25 13:17:29;;;;;;;;;;;26.20;57.90;;;;;;5034260;28;19940;-75
2022/06/25 13:19:56;;;;;;;;;;;26.20;57.90;;;;;;5037960;28;19936;-74
2022/06/25 13:22:22;;;;;;;;;;;26.30;58.00;;;;;;5035010;28;19975;-77
2022/06/25 13:24:49;;;;;;;;;;;26.40;58.00;;;;;;5037683;28;19929;-74
2022/06/25 13:27:15;;;;;;;;;;;26.40;58.20;;;;;;5040645;28;20858;-75
2022/06/25 13:29:44;;;;;;;;;;;26.50;57.80;;;;;;5038028;28;19940;-74
2022/06/25 13:32:11;;;;;;;;;;;26.50;57.60;;;;;;5033134;28;19975;-77
2022/06/25 13:34:37;;;;;;;;;;;26.60;57.60;;;;;;5031303;28;20312;-75
2022/06/25 13:37:04;;;;;;;;;;;26.70;57.30;;;;;;5039001;28;21699;-78
2022/06/25 13:39:31;;;;;;;;;;;26.70;57.30;;;;;;5038853;28;19933;-75
2022/06/25 13:41:57;;;;;;;;;;;26.80;57.30;;;;;;5039572;28;19929;-76
2022/06/25 13:44:24;;;;;;;;;;;26.90;57.50;;;;;;5040586;28;19932;-77
2022/06/25 13:46:52;;;;;;;;;;;26.90;57.30;;;;;;5035645;28;20434;-75
2022/06/25 13:49:19;;;;;;;;;;;27.00;57.50;;;;;;5040201;28;19935;-75
2022/06/25 13:51:48;;;;;;;;;;;27.10;57.10;;;;;;5035097;28;19983;-76
2022/06/25 13:54:14;;;;;;;;;;;27.10;56.40;;;;;;5033103;28;19925;-75
2022/06/25 13:56:41;;;;;;;;;;;27.20;55.90;;;;;;5034860;28;19933;-75
2022/06/25 13:59:08;;;;;;;;;;;27.20;56.10;;;;;;5041088;28;20671;-76
2022/06/25 14:01:34;;;;;;;;;;;27.30;56.10;;;;;;5041955;28;19944;-77
2022/06/25 14:04:02;;;;;;;;;;;27.40;56.30;;;;;;5039835;28;20499;-77
2022/06/25 14:06:29;;;;;;;;;;;27.40;56.30;;;;;;5037591;28;19976;-77
2022/06/25 14:08:56;;;;;;;;;;;27.50;55.80;;;;;;5038186;28;19943;-78
2022/06/25 14:11:23;;;;;;;;;;;27.50;54.70;;;;;;5040541;28;20776;-78
2022/06/25 14:13:50;;;;;;;;;;;27.60;54.80;;;;;;5040120;28;19936;-70
2022/06/25 14:16:16;;;;;;;;;;;27.60;55.00;;;;;;5036782;28;20011;-69
2022/06/25 14:18:43;;;;;;;;;;;27.60;54.40;;;;;;5042095;28;19944;-68
2022/06/25 14:21:11;;;;;;;;;;;27.60;54.50;;;;;;5042273;28;19936;-70
2022/06/25 14:23:37;;;;;;;;;;;27.70;54.80;;;;;;5038670;28;19928;-71
2022/06/25 14:26:05;;;;;;;;;;;27.80;55.00;;;;;;5040274;28;20418;-73
2022/06/25 14:28:31;;;;;;;;;;;27.80;54.70;;;;;;5039587;28;19976;-67
2022/06/25 14:30:58;;;;;;;;;;;27.90;54.10;;;;;;5039724;28;19932;-68